createdAt,value
2018-07-11T00:01:41.712Z,9.80
2018-07-11T00:04:14.321Z,9.70
2018-07-11T00:06:46.813Z,10.20
2018-07-11T00:09:19.524Z,10.50
2018-07-11T00:11:51.886Z,9.60
2018-07-11T00:14:24.268Z,10.40
2018-07-11T00:17:01.556Z,10.60
2018-07-11T00:19:34.421Z,10.50
2018-07-11T00:22:08.275Z,10.90
2018-07-11T00:24:40.789Z,11.30
2018-07-11T00:27:13.547Z,10.60
2018-07-11T00:29:46.260Z,10.60
2018-07-11T00:32:19.331Z,11.10
2018-07-11T00:34:52.122Z,10.90
2018-07-11T00:37:25.314Z,11.20
2018-07-11T00:39:58.250Z,11.40
2018-07-11T00:42:31.345Z,12.10
2018-07-11T00:45:04.498Z,11.60
2018-07-11T00:50:08.916Z,12.60
2018-07-11T00:52:41.900Z,11.50
2018-07-11T00:55:14.259Z,12.00
2018-07-11T00:57:47.814Z,12.40
2018-07-11T01:00:20.858Z,13.00
2018-07-11T01:02:53.813Z,11.70
2018-07-11T01:05:26.465Z,11.80
2018-07-11T01:07:59.370Z,12.10
2018-07-11T01:10:32.547Z,12.40
2018-07-11T01:13:05.565Z,12.90
2018-07-11T01:15:38.351Z,12.30
2018-07-11T01:18:14.662Z,12.10
2018-07-11T01:20:47.602Z,12.80
2018-07-11T01:23:20.423Z,12.30
2018-07-11T01:25:52.928Z,11.70
2018-07-11T01:28:25.439Z,11.90
2018-07-11T01:30:58.090Z,12.60
2018-07-11T01:33:30.804Z,12.40
2018-07-11T01:36:04.799Z,12.90
2018-07-11T01:38:38.195Z,12.80
2018-07-11T01:41:10.784Z,12.80
2018-07-11T01:43:43.481Z,12.80
2018-07-11T01:46:16.951Z,13.10
2018-07-11T01:48:49.668Z,13.20
2018-07-11T01:51:22.824Z,13.10
2018-07-11T01:53:55.994Z,13.00
2018-07-11T01:56:28.996Z,13.00
2018-07-11T01:59:01.775Z,12.60
2018-07-11T02:01:35.015Z,13.60
2018-07-11T02:04:07.788Z,12.70
2018-07-11T02:06:40.221Z,12.70
2018-07-11T02:09:12.899Z,13.00
2018-07-11T02:11:46.025Z,13.40
2018-07-11T02:14:19.280Z,13.70
2018-07-11T02:16:52.618Z,13.20
2018-07-11T02:19:25.417Z,13.80
2018-07-11T02:21:59.681Z,13.90
2018-07-11T02:24:33.696Z,13.70
2018-07-11T02:27:06.198Z,13.50
2018-07-11T02:29:39.516Z,13.60
2018-07-11T02:32:12.406Z,14.20
2018-07-11T02:34:45.521Z,14.80
2018-07-11T02:37:18.225Z,14.90
2018-07-11T02:39:50.542Z,15.00
2018-07-11T02:42:24.379Z,15.10
2018-07-11T02:44:57.187Z,15.60
2018-07-11T02:47:35.268Z,15.70
2018-07-11T02:50:07.645Z,15.80
2018-07-11T02:52:40.035Z,16.00
2018-07-11T02:55:12.430Z,16.50
2018-07-11T02:57:44.850Z,16.80
2018-07-11T03:00:17.836Z,16.60
2018-07-11T03:02:50.474Z,17.10
2018-07-11T03:05:23.367Z,17.30
2018-07-11T03:07:56.460Z,17.70
2018-07-11T03:10:28.767Z,18.60
2018-07-11T03:13:01.340Z,18.80
2018-07-11T03:15:34.111Z,19.30
2018-07-11T03:18:06.891Z,19.80
2018-07-11T03:20:39.454Z,19.90
2018-07-11T03:23:12.288Z,20.50
2018-07-11T03:25:45.034Z,20.80
2018-07-11T03:28:18.211Z,21.30
2018-07-11T03:30:50.932Z,21.10
2018-07-11T03:33:23.437Z,21.30
2018-07-11T03:35:56.146Z,21.60
2018-07-11T03:38:28.661Z,22.00
2018-07-11T03:41:01.251Z,22.00
2018-07-11T03:43:33.425Z,21.90
2018-07-11T03:46:05.797Z,21.80
2018-07-11T03:48:38.828Z,22.00
2018-07-11T03:51:11.408Z,22.50
2018-07-11T03:53:43.839Z,22.90
2018-07-11T03:56:16.280Z,23.80
2018-07-11T03:58:50.574Z,25.10
2018-07-11T04:01:25.370Z,25.70
2018-07-11T04:03:59.750Z,26.80
2018-07-11T04:06:32.513Z,27.20
2018-07-11T04:09:05.078Z,27.80
2018-07-11T04:11:37.523Z,28.20
2018-07-11T04:14:10.155Z,28.50
2018-07-11T04:16:42.909Z,28.90
2018-07-11T04:19:15.304Z,29.40
2018-07-11T04:21:47.653Z,29.50
2018-07-11T04:24:20.141Z,30.00
2018-07-11T04:26:53.311Z,30.30
2018-07-11T04:29:25.747Z,30.80
2018-07-11T04:31:59.318Z,31.30
2018-07-11T04:34:31.965Z,31.50
2018-07-11T04:37:05.580Z,31.70
2018-07-11T04:39:38.139Z,32.00
2018-07-11T04:42:10.269Z,32.00
2018-07-11T04:44:43.085Z,32.80
2018-07-11T04:47:16.236Z,32.90
2018-07-11T04:49:49.661Z,33.20
2018-07-11T04:52:22.075Z,33.50
2018-07-11T04:54:55.563Z,33.60
2018-07-11T04:57:29.043Z,33.80
2018-07-11T05:00:01.784Z,33.90
2018-07-11T05:02:34.446Z,34.00
2018-07-11T05:05:06.638Z,34.00
2018-07-11T05:07:39.402Z,34.10
2018-07-11T05:10:11.919Z,34.40
2018-07-11T05:12:44.668Z,34.80
2018-07-11T05:15:17.108Z,35.30
2018-07-11T05:17:49.859Z,35.30
2018-07-11T05:20:22.246Z,35.60
2018-07-11T05:22:55.419Z,35.90
2018-07-11T05:25:27.992Z,36.50
2018-07-11T05:28:01.199Z,36.80
2018-07-11T05:30:34.131Z,37.00
2018-07-11T05:33:06.849Z,37.40
2018-07-11T05:35:39.395Z,38.00
2018-07-11T05:38:12.052Z,38.60
2018-07-11T05:40:44.719Z,39.00
2018-07-11T05:43:17.436Z,39.60
2018-07-11T05:45:49.687Z,40.00
2018-07-11T05:48:23.606Z,40.30
2018-07-11T05:50:56.205Z,40.90
2018-07-11T05:53:28.633Z,41.10
2018-07-11T05:56:01.119Z,41.70
2018-07-11T05:58:34.029Z,41.70
2018-07-11T06:01:07.053Z,42.20
2018-07-11T06:03:39.664Z,42.60
2018-07-11T06:06:12.814Z,42.90
2018-07-11T06:08:45.364Z,43.10
2018-07-11T06:11:24.054Z,43.20
2018-07-11T06:13:56.541Z,44.10
2018-07-11T06:16:29.526Z,43.40
2018-07-11T06:19:02.104Z,43.80
2018-07-11T06:21:34.703Z,44.10
2018-07-11T06:24:07.153Z,44.20
2018-07-11T06:26:39.555Z,44.90
2018-07-11T06:29:12.535Z,44.90
2018-07-11T06:31:45.129Z,45.40
2018-07-11T06:34:17.497Z,45.60
2018-07-11T06:36:49.670Z,45.60
2018-07-11T06:39:22.246Z,45.60
2018-07-11T06:41:54.578Z,46.00
2018-07-11T06:44:27.378Z,46.10
2018-07-11T06:47:03.832Z,46.10
2018-07-11T06:49:36.427Z,46.50
2018-07-11T06:52:09.410Z,46.60
2018-07-11T06:54:41.784Z,46.60
2018-07-11T06:57:14.136Z,46.70
2018-07-11T06:59:46.976Z,46.90
2018-07-11T07:02:19.558Z,46.70
2018-07-11T07:04:52.068Z,46.50
2018-07-11T07:07:26.605Z,47.00
2018-07-11T07:09:59.360Z,47.40
2018-07-11T07:12:32.402Z,47.60
2018-07-11T07:15:05.157Z,48.40
2018-07-11T07:17:37.739Z,48.50
2018-07-11T07:20:10.329Z,49.00
2018-07-11T07:22:42.958Z,48.90
2018-07-11T07:25:15.413Z,49.00
2018-07-11T07:27:47.545Z,49.10
2018-07-11T07:30:19.709Z,49.10
2018-07-11T07:32:52.161Z,49.40
2018-07-11T07:35:24.589Z,49.80
2018-07-11T07:37:57.112Z,50.20
2018-07-11T07:40:29.701Z,49.80
2018-07-11T07:43:01.893Z,51.20
2018-07-11T07:45:35.038Z,50.30
2018-07-11T07:48:07.402Z,50.80
2018-07-11T07:50:39.880Z,51.60
2018-07-11T07:53:12.722Z,51.60
2018-07-11T07:55:45.531Z,51.80
2018-07-11T07:58:18.011Z,52.00
2018-07-11T08:00:50.525Z,52.00
2018-07-11T08:03:23.231Z,52.40
2018-07-11T08:05:55.740Z,52.30
2018-07-11T08:08:28.328Z,52.70
2018-07-11T08:11:00.712Z,52.60
2018-07-11T08:13:33.126Z,52.60
2018-07-11T08:16:06.254Z,52.80
2018-07-11T08:18:38.844Z,52.90
2018-07-11T08:21:11.804Z,52.90
2018-07-11T08:23:53.422Z,53.60
2018-07-11T08:26:35.010Z,53.90
2018-07-11T08:30:19.818Z,53.70
2018-07-11T08:33:05.528Z,53.90
2018-07-11T08:36:02.318Z,53.90
2018-07-11T08:40:50.653Z,54.20
2018-07-11T08:43:31.693Z,54.50
2018-07-11T08:46:40.579Z,54.50
2018-07-11T08:49:22.942Z,54.60
2018-07-11T08:52:06.971Z,54.50
2018-07-11T08:56:52.145Z,54.50
2018-07-11T08:59:36.283Z,54.50
2018-07-11T09:05:25.631Z,54.70
2018-07-11T09:08:16.441Z,54.40
2018-07-11T09:12:00.660Z,54.60
2018-07-11T09:14:42.715Z,54.60
2018-07-11T09:17:36.793Z,54.40
2018-07-11T09:20:17.596Z,54.30
2018-07-11T09:22:59.125Z,54.30
2018-07-11T09:25:31.535Z,54.40
2018-07-11T09:28:04.063Z,54.50
2018-07-11T09:30:36.858Z,54.50
2018-07-11T09:33:09.254Z,54.60
2018-07-11T09:35:41.803Z,55.00
2018-07-11T09:38:14.561Z,55.10
2018-07-11T09:40:47.503Z,55.80
2018-07-11T09:43:19.898Z,55.50
2018-07-11T09:45:52.650Z,55.70
2018-07-11T09:48:25.306Z,55.70
2018-07-11T09:50:58.033Z,55.70
2018-07-11T09:53:31.335Z,56.00
2018-07-11T09:56:04.329Z,56.70
2018-07-11T09:58:37.727Z,57.00
2018-07-11T10:01:15.236Z,56.50
2018-07-11T10:03:48.604Z,57.30
2018-07-11T10:06:21.209Z,57.70
2018-07-11T10:08:54.166Z,57.60
2018-07-11T10:11:26.925Z,58.10
2018-07-11T10:14:00.373Z,58.50
2018-07-11T10:16:33.578Z,59.40
2018-07-11T10:19:06.719Z,59.30
2018-07-11T10:21:39.350Z,59.60
2018-07-11T10:24:12.129Z,59.70
2018-07-11T10:26:44.695Z,59.80
2018-07-11T10:29:17.263Z,60.00
2018-07-11T10:31:49.697Z,59.70
2018-07-11T10:34:22.131Z,60.00
2018-07-11T10:39:25.709Z,60.20
2018-07-11T10:41:57.967Z,60.00
2018-07-11T10:44:30.630Z,60.10
2018-07-11T10:47:14.014Z,60.40
2018-07-11T10:49:46.900Z,60.10
2018-07-11T10:52:19.448Z,60.40
2018-07-11T10:54:52.255Z,60.80
2018-07-11T10:57:25.289Z,60.80
2018-07-11T10:59:57.939Z,61.10
2018-07-11T11:02:30.639Z,60.70
2018-07-11T11:05:03.377Z,60.80
2018-07-11T11:07:36.566Z,60.60
2018-07-11T11:10:08.971Z,61.20
2018-07-11T11:12:41.909Z,61.40
2018-07-11T11:15:14.522Z,61.20
2018-07-11T11:20:18.595Z,60.90
2018-07-11T11:22:51.300Z,61.80
2018-07-11T11:25:23.495Z,62.10
2018-07-11T11:27:56.294Z,61.50
2018-07-11T11:30:29.338Z,61.10
2018-07-11T11:33:01.913Z,62.10
2018-07-11T11:35:35.247Z,61.80
2018-07-11T11:38:07.804Z,61.50
2018-07-11T11:40:40.187Z,61.30
2018-07-11T11:43:12.521Z,61.10
2018-07-11T11:45:44.897Z,61.80
2018-07-11T11:48:17.429Z,62.20
2018-07-11T11:50:49.893Z,62.50
2018-07-11T11:53:22.314Z,63.90
2018-07-11T11:55:54.610Z,64.20
2018-07-11T12:00:58.594Z,64.80
2018-07-11T12:03:30.763Z,64.40
2018-07-11T12:06:04.305Z,64.70
2018-07-11T12:08:36.900Z,64.50
2018-07-11T12:11:09.480Z,64.30
2018-07-11T12:13:42.174Z,64.70
2018-07-11T12:16:15.209Z,65.20
2018-07-11T12:18:47.606Z,65.60
2018-07-11T12:21:20.787Z,65.60
2018-07-11T12:23:53.519Z,66.20
2018-07-11T12:26:26.472Z,66.00
2018-07-11T12:28:59.314Z,66.20
2018-07-11T12:31:31.698Z,66.10
2018-07-11T12:34:04.470Z,66.20
2018-07-11T12:36:36.849Z,66.40
2018-07-11T12:39:09.680Z,66.40
2018-07-11T12:41:42.448Z,66.60
2018-07-11T12:44:14.884Z,66.50
2018-07-11T12:46:48.604Z,66.50
2018-07-11T12:49:21.594Z,66.40
2018-07-11T12:51:53.986Z,66.60
2018-07-11T12:54:26.572Z,66.40
2018-07-11T12:56:59.179Z,66.20
2018-07-11T12:59:33.584Z,66.10
2018-07-11T13:02:07.457Z,66.00
2018-07-11T13:04:39.914Z,66.20
2018-07-11T13:07:12.972Z,66.70
2018-07-11T13:09:45.523Z,67.00
2018-07-11T13:12:17.889Z,67.30
2018-07-11T13:14:50.504Z,67.10
2018-07-11T13:17:23.188Z,66.50
2018-07-11T13:19:55.479Z,66.30
2018-07-11T13:22:27.891Z,65.90
2018-07-11T13:25:00.329Z,65.00
2018-07-11T13:27:32.559Z,64.70
2018-07-11T13:30:06.067Z,64.10
2018-07-11T13:32:38.588Z,64.50
2018-07-11T13:35:11.159Z,64.00
2018-07-11T13:37:43.856Z,64.10
2018-07-11T13:40:16.727Z,63.10
2018-07-11T13:42:49.163Z,61.90
2018-07-11T13:45:21.552Z,61.30
2018-07-11T13:47:58.436Z,61.20
2018-07-11T13:50:31.008Z,60.20
2018-07-11T13:53:04.018Z,59.70
2018-07-11T13:55:36.622Z,59.80
2018-07-11T13:58:09.381Z,59.70
2018-07-11T14:00:42.775Z,59.20
2018-07-11T14:03:15.564Z,57.60
2018-07-11T14:05:48.353Z,58.60
2018-07-11T14:08:21.077Z,57.60
2018-07-11T14:10:54.122Z,56.00
2018-07-11T14:13:26.922Z,54.80
2018-07-11T14:15:59.714Z,55.00
2018-07-11T14:18:34.582Z,55.10
2018-07-11T14:21:07.300Z,53.50
2018-07-11T14:23:43.961Z,52.70
2018-07-11T14:26:22.461Z,53.10
2018-07-11T14:28:55.275Z,53.90
2018-07-11T14:31:38.109Z,52.70
2018-07-11T14:34:11.461Z,51.80
2018-07-11T14:36:43.889Z,52.30
2018-07-11T14:39:16.538Z,52.70
2018-07-11T14:41:49.124Z,51.40
2018-07-11T14:44:22.675Z,50.40
2018-07-11T14:46:55.298Z,50.70
2018-07-11T14:51:59.277Z,49.10
2018-07-11T14:54:31.697Z,46.50
2018-07-11T14:57:04.483Z,46.40
2018-07-11T15:02:09.305Z,43.10
2018-07-11T15:04:42.514Z,41.10
2018-07-11T15:07:15.040Z,40.70
2018-07-11T15:09:47.696Z,38.40
2018-07-11T15:12:19.881Z,37.20
2018-07-11T15:14:53.005Z,35.20
2018-07-11T15:17:25.556Z,31.90
2018-07-11T15:19:58.983Z,29.60
2018-07-11T15:22:31.803Z,27.60
2018-07-11T15:25:04.393Z,27.50
2018-07-11T15:27:37.003Z,24.20
2018-07-11T15:30:09.384Z,23.00
2018-07-11T15:32:42.239Z,20.80
2018-07-11T15:35:14.836Z,19.20
2018-07-11T15:37:48.250Z,17.30
2018-07-11T15:40:20.942Z,13.80
2018-07-11T15:42:54.352Z,13.90
2018-07-11T15:45:27.276Z,13.80
2018-07-11T15:48:01.558Z,14.60
2018-07-11T15:50:34.976Z,11.00
2018-07-11T15:53:08.064Z,10.10
2018-07-11T15:55:40.729Z,9.10
2018-07-11T15:58:16.816Z,9.30
2018-07-11T16:00:50.061Z,9.90
2018-07-11T16:03:24.345Z,8.80
2018-07-11T16:05:57.857Z,8.00
2018-07-11T16:08:31.132Z,7.80
2018-07-11T16:11:06.757Z,7.60
2018-07-11T16:13:39.184Z,7.10
2018-07-11T16:16:11.637Z,4.80
2018-07-11T16:18:44.327Z,2.80
2018-07-11T16:21:16.701Z,4.00
2018-07-11T16:23:49.815Z,2.70
2018-07-11T16:26:22.589Z,1.60
2018-07-11T16:28:55.473Z,1.00
2018-07-11T16:31:28.187Z,1.00
2018-07-11T16:34:00.952Z,1.00
2018-07-11T16:36:33.974Z,1.00
2018-07-11T16:39:07.088Z,1.00
2018-07-11T16:41:40.130Z,1.00
2018-07-11T16:44:12.376Z,1.00
2018-07-11T16:46:45.488Z,1.00
2018-07-11T16:49:18.458Z,1.00
2018-07-11T16:51:53.745Z,1.00
2018-07-11T16:54:26.419Z,1.00
2018-07-11T16:57:00.944Z,1.00
2018-07-11T16:59:40.892Z,1.00
2018-07-11T17:02:14.043Z,1.00
2018-07-11T17:04:47.321Z,1.00
2018-07-11T17:07:23.157Z,1.00
2018-07-11T17:09:58.310Z,1.00
2018-07-11T17:12:32.651Z,1.00
2018-07-11T17:15:05.723Z,1.00
2018-07-11T17:17:38.583Z,1.00
2018-07-11T17:20:12.888Z,1.00
2018-07-11T17:25:24.119Z,1.00
2018-07-11T17:28:02.221Z,1.00
2018-07-11T17:30:38.908Z,1.00
2018-07-11T17:33:12.138Z,1.00
2018-07-11T17:35:50.956Z,1.00
2018-07-11T17:38:29.430Z,1.00
2018-07-11T17:41:04.398Z,1.00
2018-07-11T17:43:39.608Z,1.00
2018-07-11T17:46:12.754Z,1.00
2018-07-11T17:48:52.361Z,1.00
2018-07-11T17:51:33.337Z,1.00
2018-07-11T17:54:06.946Z,1.00
2018-07-11T17:56:48.344Z,1.00
2018-07-11T17:59:25.379Z,1.00
2018-07-11T18:02:00.245Z,1.00
2018-07-11T18:04:44.133Z,1.00
2018-07-11T18:07:54.220Z,1.00
2018-07-11T18:10:39.057Z,1.00
2018-07-11T18:13:28.529Z,1.00
2018-07-11T18:18:10.687Z,1.00
2018-07-11T18:20:53.698Z,1.00
2018-07-11T18:25:43.904Z,1.00
2018-07-11T18:28:28.592Z,1.00
2018-07-11T18:32:15.459Z,1.00
2018-07-11T18:35:10.589Z,1.00
2018-07-11T18:38:56.041Z,1.00
2018-07-11T18:43:55.435Z,1.00
2018-07-11T18:47:35.116Z,1.00
2018-07-11T18:50:22.796Z,1.00
2018-07-11T18:53:11.977Z,1.00
2018-07-11T18:56:21.104Z,1.00
2018-07-11T18:59:05.701Z,1.00
2018-07-11T19:02:46.305Z,1.00
2018-07-11T19:05:42.052Z,1.00
2018-07-11T19:08:57.579Z,1.00
2018-07-11T19:11:39.784Z,1.00
2018-07-11T19:14:12.897Z,1.00
2018-07-11T19:17:07.319Z,1.00
2018-07-11T19:19:50.269Z,1.00
2018-07-11T19:22:33.551Z,1.00
2018-07-11T19:25:24.575Z,1.00
2018-07-11T19:28:10.403Z,1.00
2018-07-11T19:31:17.868Z,1.00
2018-07-11T19:34:10.082Z,1.00
2018-07-11T19:37:04.116Z,1.00
2018-07-11T19:39:53.477Z,1.00
2018-07-11T19:42:42.014Z,1.00
2018-07-11T19:47:28.025Z,1.00
2018-07-11T19:50:24.809Z,1.00
2018-07-11T19:55:40.307Z,1.00
2018-07-11T19:58:12.876Z,1.00
2018-07-11T20:00:45.639Z,1.00
2018-07-11T20:03:18.399Z,1.00
2018-07-11T20:05:53.343Z,1.00
2018-07-11T20:08:23.993Z,1.00
2018-07-11T20:10:56.567Z,1.00
2018-07-11T20:13:29.357Z,1.00
2018-07-11T20:16:02.151Z,1.00
2018-07-11T20:18:35.193Z,1.00
2018-07-11T20:21:07.851Z,1.00
2018-07-11T20:23:40.572Z,1.00
2018-07-11T20:26:13.002Z,1.00
2018-07-11T20:28:46.511Z,2.10
2018-07-11T20:31:19.109Z,1.00
2018-07-11T20:33:51.688Z,1.60
2018-07-11T20:36:24.624Z,1.60
2018-07-11T20:38:57.837Z,1.90
2018-07-11T20:41:30.517Z,2.20
2018-07-11T20:44:03.256Z,2.60
2018-07-11T20:46:36.699Z,3.50
2018-07-11T20:49:14.734Z,4.20
2018-07-11T20:51:47.201Z,3.00
2018-07-11T20:54:20.408Z,2.50
2018-07-11T20:56:52.800Z,2.70
2018-07-11T20:59:34.561Z,2.40
2018-07-11T21:02:16.378Z,2.00
2018-07-11T21:07:02.555Z,2.00
2018-07-11T21:09:47.405Z,1.90
2018-07-11T21:12:31.483Z,2.30
2018-07-11T21:15:13.272Z,2.70
2018-07-11T21:18:16.932Z,2.10
2018-07-11T21:20:50.989Z,2.80
2018-07-11T21:23:23.357Z,3.60
2018-07-11T21:25:55.913Z,3.00
2018-07-11T21:28:28.752Z,2.70
2018-07-11T21:31:01.479Z,2.80
2018-07-11T21:33:35.148Z,3.00
2018-07-11T21:36:08.000Z,3.10
2018-07-11T21:38:40.544Z,2.80
2018-07-11T21:41:13.707Z,3.40
2018-07-11T21:43:46.923Z,2.70
2018-07-11T21:46:19.104Z,2.70
2018-07-11T21:48:51.847Z,2.90
2018-07-11T21:51:24.407Z,3.40
2018-07-11T21:53:56.821Z,3.40
2018-07-11T21:56:29.240Z,3.70
2018-07-11T21:59:01.551Z,3.30
2018-07-11T22:01:34.177Z,2.80
2018-07-11T22:04:06.523Z,2.60
2018-07-11T22:06:39.303Z,2.70
2018-07-11T22:09:11.742Z,3.80
2018-07-11T22:11:44.594Z,2.60
2018-07-11T22:14:17.027Z,2.60
2018-07-11T22:16:49.582Z,2.40
2018-07-11T22:19:21.967Z,2.30
2018-07-11T22:21:51.487Z,2.80
2018-07-11T22:24:21.071Z,2.70
2018-07-11T22:26:51.005Z,3.00
2018-07-11T22:29:20.545Z,3.00
2018-07-11T22:31:50.206Z,2.80
2018-07-11T22:34:19.660Z,2.30
2018-07-11T22:36:49.546Z,2.60
2018-07-11T22:39:18.798Z,2.30
2018-07-11T22:41:48.340Z,2.10
2018-07-11T22:44:18.045Z,2.60
2018-07-11T22:46:47.722Z,2.30
2018-07-11T22:49:18.195Z,2.40
2018-07-11T22:51:47.876Z,2.10
2018-07-11T22:54:17.615Z,2.10
2018-07-11T22:56:47.280Z,1.90
2018-07-11T22:59:16.938Z,2.40
2018-07-11T23:01:47.034Z,1.80
2018-07-11T23:04:16.498Z,2.00
2018-07-11T23:06:46.056Z,2.40
2018-07-11T23:09:15.678Z,2.10
2018-07-11T23:11:46.287Z,2.00
2018-07-11T23:14:15.952Z,2.60
2018-07-11T23:16:45.506Z,2.30
2018-07-11T23:19:15.821Z,2.20
2018-07-11T23:24:15.335Z,2.00
2018-07-11T23:26:44.816Z,1.70
2018-07-11T23:29:14.091Z,1.80
2018-07-11T23:31:44.069Z,1.60
2018-07-11T23:34:13.805Z,1.90
2018-07-11T23:36:43.577Z,2.00
2018-07-11T23:39:13.465Z,2.50
2018-07-11T23:41:43.197Z,2.20
2018-07-11T23:44:12.791Z,2.60
2018-07-11T23:46:42.453Z,2.40
2018-07-11T23:49:11.970Z,3.30
2018-07-11T23:51:41.369Z,2.90
2018-07-11T23:54:11.028Z,2.70
2018-07-11T23:56:40.481Z,2.40
2018-07-11T23:59:10.194Z,2.40
